Aérodrome :
LOGIN :

S'inscrire | Disclaimer

   EN    FR    IT 

 










Légende :    VFR   VFR Marginal   IFR   IFR Intensif   IFR Très Intensif
Visi : 
Plafond : 
>= 8 km
>= 3000ft
5 à 8 km
1000 à 3000 ft
1500m à 5 km
500 à 1000 ft
800 à 1500m
200 à 500 ft
< 800m
< 200 ft
Symboles :   Orages  Brouillard  Fortes neiges  Fortes précipitations  Vent > 20 kt
SIGMETs :   Divers  Orages  Givrage  Turbulence  Onde Orograph.  Cendres Volcan.






- Altitude de l'aérodrome : 788 ft
- Code IATA : DCM


LFCK - Castres-Mazamet

DERNIER METAR :
  • 190700Z AUTO 03003KT 6000 FEW006 OVC170 12/12 Q1010 NOSIG

METARs EXPIRÉS :
  • 190630Z AUTO 29003KT 240V360 5000 BR NSC 12/11 Q1010 NOSIG
  • 190600Z AUTO 26004KT CAVOK 12/11 Q1009 NOSIG
  • 190530Z AUTO 26005KT 240V300 CAVOK 13/12 Q1009 NOSIG
  • 190500Z AUTO 28005KT CAVOK 14/12 Q1009
  • 190430Z AUTO VRB03KT CAVOK 15/12 Q1009

TAF TAF LFCK
Valide du 19 à 06h jusqu'au 19 à 15h UTC


190500Z 1906/1915 VRB03KT CAVOK



MET'MAP, la Météo Aéronautique d'un coup d'oeil ! - Copyright ORBIFLY Décembre 2007 - Disclaimer

ORBIFLY MET'MAP TEAM :

Programmation & Développement : Alexandra Zaïnal
Conception & Développement : Baudouin d'Aumeries
Co-Programmation & Développement : Marc-Olivier Méhu
Soutien technique & logistique : Manuel Goepfert

Contact : metmap@orbifly.com




SOURCES & CREDITS :

   NOAA